Woodbine, Illinois
Current Conditions -  °F | °C
As of 4:15 PM on Saturday 25 Oct 2014 (Local Time) from KSFY Reporting Station
Clear Clear  
Wind Chill: 71°   Ceiling: Unl
Heat Index: 71°   Visibility: 10mi
Dew Point: 31°   Wind: 8mph
Humidity: 23%   Direction: 290°WNW
Pressure: 29.98"   Gusts: 16mph
Location:  42.3424°N, 90.0324°W
Report Text: KSFY 252115Z AUTO 29007G14KT 10SM CLR 22/M01 A2998 RMK AO2 T02151006
Loading
Personal Weather Stations






























Interactive Weather Map
Tropical Storm Tracking
New forecast layout! Learn more

10-Day Weather Forecast

Advertisements
Track Severe Weather on mobile